This is the latest recevied weather packets stored in our database for station/object M0HPP-13. If no packets are shown the sender has not sent any weather packets the latest 10 day(s).
| Time | Temp. | Humidity | Pressure | Rain* | Wind** | Luminosity | Snow |
|---|---|---|---|---|---|---|---|
| 1778358329 | 3.89° C | 74% | 1025.3 hPa | 0 mm | - | 4 W/m² | - |
| 1778357729 | 4.44° C | 71% | 1025.2 hPa | 0 mm | - | 7 W/m² | - |
| 1778357129 | 5° C | 68% | 1025.1 hPa | 0 mm | - | 10 W/m² | - |
| 1778356529 | 6.11° C | 65% | 1025 hPa | 0 mm | - | 24 W/m² | - |
| 1778355929 | 6.11° C | 66% | 1025 hPa | 0 mm | - | 24 W/m² | - |
| 1778355329 | 6.67° C | 63% | 1024.8 hPa | 0 mm | - | 30 W/m² | - |
| 1778354729 | 7.22° C | 60% | 1024.7 hPa | 0 mm | - | 42 W/m² | - |
| 1778354129 | 8.33° C | 57% | 1024.6 hPa | 0 mm | - | 69 W/m² | - |
| 1778353529 | 7.78° C | 59% | 1024.6 hPa | 0 mm | - | 94 W/m² | - |
| 1778352929 | 7.22° C | 59% | 1024.4 hPa | 0 mm | - | 83 W/m² | - |
| 1778352329 | 7.22° C | 57% | 1024.3 hPa | 0 mm | - | 39 W/m² | - |
| 1778351729 | 7.78° C | 53% | 1024.4 hPa | 0 mm | - | 38 W/m² | - |
| 1778351129 | 9.44° C | 49% | 1024.3 hPa | 0 mm | - | 62 W/m² | - |
| 1778350529 | 10.56° C | 47% | 1024.3 hPa | 0 mm | - | 175 W/m² | - |
| 1778349929 | 10.56° C | 46% | 1024.2 hPa | 0 mm | - | 201 W/m² | - |
| 1778349329 | 10.56° C | 45% | 1024.2 hPa | 0 mm | - | 264 W/m² | - |
| 1778348729 | 10° C | 46% | 1024.2 hPa | 0 mm | - | 319 W/m² | - |
| 1778348129 | 10° C | 46% | 1024.1 hPa | 0 mm | - | 198 W/m² | - |
| 1778347529 | 10° C | 45% | 1024 hPa | 0 mm | - | 263 W/m² | - |
| 1778346929 | 9.44° C | 46% | 1024.1 hPa | 0 mm | - | 194 W/m² | - |
| 1778346329 | 8.89° C | 45% | 1024 hPa | 0 mm | - | 141 W/m² | - |
| 1778345729 | 9.44° C | 44% | 1024.1 hPa | 0 mm | - | 85 W/m² | - |
| 1778345129 | 9.44° C | 44% | 1024 hPa | 0 mm | - | 114 W/m² | - |
| 1778344529 | 8.89° C | 53% | 1024 hPa | 0 mm | - | 189 W/m² | - |
| 1778343929 | 8.33° C | 56% | 1023.9 hPa | 0 mm | - | 205 W/m² | - |
* Rain latest hour (hover to see other rain measurements)
** Current wind speed in m/s (hover to see current wind gust speed)